sensor_id;sensor_type;location;lat;lon;timestamp;P1;durP1;ratioP1;P2;durP2;ratioP2
11328;SDS011;5719;42.714;23.732;2023-10-13T00:01:06;5.85;;;3.70;;
11328;SDS011;5719;42.714;23.732;2023-10-13T00:03:36;12.63;;;4.18;;
11328;SDS011;5719;42.714;23.732;2023-10-13T00:06:06;14.48;;;3.92;;
11328;SDS011;5719;42.714;23.732;2023-10-13T00:08:33;5.80;;;3.53;;
11328;SDS011;5719;42.714;23.732;2023-10-13T00:11:03;8.85;;;3.97;;
11328;SDS011;5719;42.714;23.732;2023-10-13T00:13:30;6.60;;;4.10;;
11328;SDS011;5719;42.714;23.732;2023-10-13T00:16:06;5.40;;;3.80;;
11328;SDS011;5719;42.714;23.732;2023-10-13T00:18:35;4.03;;;3.28;;
11328;SDS011;5719;42.714;23.732;2023-10-13T00:21:08;6.13;;;3.58;;
11328;SDS011;5719;42.714;23.732;2023-10-13T00:23:38;8.65;;;3.45;;
11328;SDS011;5719;42.714;23.732;2023-10-13T00:26:08;6.45;;;3.53;;
11328;SDS011;5719;42.714;23.732;2023-10-13T00:28:35;6.72;;;3.13;;
11328;SDS011;5719;42.714;23.732;2023-10-13T00:31:10;6.38;;;3.50;;
11328;SDS011;5719;42.714;23.732;2023-10-13T00:33:39;6.80;;;3.80;;
11328;SDS011;5719;42.714;23.732;2023-10-13T00:36:08;7.85;;;3.83;;
11328;SDS011;5719;42.714;23.732;2023-10-13T00:38:42;5.90;;;3.72;;
11328;SDS011;5719;42.714;23.732;2023-10-13T00:41:13;4.95;;;3.83;;
11328;SDS011;5719;42.714;23.732;2023-10-13T00:43:45;4.18;;;3.67;;
11328;SDS011;5719;42.714;23.732;2023-10-13T00:46:29;5.22;;;3.80;;
11328;SDS011;5719;42.714;23.732;2023-10-13T00:48:58;6.70;;;4.45;;
11328;SDS011;5719;42.714;23.732;2023-10-13T00:51:27;4.63;;;3.50;;
11328;SDS011;5719;42.714;23.732;2023-10-13T00:54:03;8.50;;;4.00;;
11328;SDS011;5719;42.714;23.732;2023-10-13T00:56:37;6.55;;;4.13;;
11328;SDS011;5719;42.714;23.732;2023-10-13T00:59:11;9.35;;;4.28;;
11328;SDS011;5719;42.714;23.732;2023-10-13T01:01:39;4.18;;;3.17;;
11328;SDS011;5719;42.714;23.732;2023-10-13T01:04:07;4.47;;;3.55;;
11328;SDS011;5719;42.714;23.732;2023-10-13T01:06:38;6.25;;;3.97;;
11328;SDS011;5719;42.714;23.732;2023-10-13T01:09:05;5.93;;;4.00;;
11328;SDS011;5719;42.714;23.732;2023-10-13T01:11:42;6.22;;;3.85;;
11328;SDS011;5719;42.714;23.732;2023-10-13T01:14:09;7.13;;;3.88;;
11328;SDS011;5719;42.714;23.732;2023-10-13T01:16:37;4.63;;;3.13;;
11328;SDS011;5719;42.714;23.732;2023-10-13T01:19:08;4.63;;;3.95;;
11328;SDS011;5719;42.714;23.732;2023-10-13T01:21:38;5.53;;;3.75;;
11328;SDS011;5719;42.714;23.732;2023-10-13T01:24:07;6.20;;;3.90;;
11328;SDS011;5719;42.714;23.732;2023-10-13T01:26:35;5.63;;;4.00;;
11328;SDS011;5719;42.714;23.732;2023-10-13T01:29:04;4.68;;;3.63;;
11328;SDS011;5719;42.714;23.732;2023-10-13T01:31:38;5.22;;;3.22;;
11328;SDS011;5719;42.714;23.732;2023-10-13T01:34:10;5.05;;;3.65;;
11328;SDS011;5719;42.714;23.732;2023-10-13T01:36:38;5.05;;;3.95;;
11328;SDS011;5719;42.714;23.732;2023-10-13T01:39:07;5.60;;;3.50;;
11328;SDS011;5719;42.714;23.732;2023-10-13T01:41:36;6.68;;;3.97;;
11328;SDS011;5719;42.714;23.732;2023-10-13T01:44:04;8.18;;;3.47;;
11328;SDS011;5719;42.714;23.732;2023-10-13T01:46:31;5.68;;;4.20;;
11328;SDS011;5719;42.714;23.732;2023-10-13T01:48:58;5.30;;;3.55;;
11328;SDS011;5719;42.714;23.732;2023-10-13T01:51:24;5.05;;;3.70;;
11328;SDS011;5719;42.714;23.732;2023-10-13T01:53:52;5.25;;;4.00;;
11328;SDS011;5719;42.714;23.732;2023-10-13T01:56:22;4.20;;;3.83;;
11328;SDS011;5719;42.714;23.732;2023-10-13T01:58:48;10.68;;;3.88;;
11328;SDS011;5719;42.714;23.732;2023-10-13T02:01:15;6.18;;;3.67;;
11328;SDS011;5719;42.714;23.732;2023-10-13T02:03:51;9.25;;;4.35;;
11328;SDS011;5719;42.714;23.732;2023-10-13T02:06:26;6.03;;;4.25;;
11328;SDS011;5719;42.714;23.732;2023-10-13T02:08:57;5.35;;;3.95;;
11328;SDS011;5719;42.714;23.732;2023-10-13T02:11:32;5.78;;;3.72;;
11328;SDS011;5719;42.714;23.732;2023-10-13T02:13:57;7.00;;;3.70;;
11328;SDS011;5719;42.714;23.732;2023-10-13T02:16:25;6.43;;;3.70;;
11328;SDS011;5719;42.714;23.732;2023-10-13T02:18:51;4.97;;;4.05;;
11328;SDS011;5719;42.714;23.732;2023-10-13T02:21:18;4.13;;;3.47;;
11328;SDS011;5719;42.714;23.732;2023-10-13T02:23:44;7.25;;;4.07;;
11328;SDS011;5719;42.714;23.732;2023-10-13T02:26:24;5.18;;;3.85;;
11328;SDS011;5719;42.714;23.732;2023-10-13T02:28:56;6.10;;;4.18;;
11328;SDS011;5719;42.714;23.732;2023-10-13T02:31:26;4.93;;;3.72;;
11328;SDS011;5719;42.714;23.732;2023-10-13T02:33:53;6.70;;;4.25;;
11328;SDS011;5719;42.714;23.732;2023-10-13T02:36:20;6.32;;;4.03;;
11328;SDS011;5719;42.714;23.732;2023-10-13T02:39:01;9.23;;;3.75;;
11328;SDS011;5719;42.714;23.732;2023-10-13T02:41:32;5.25;;;4.22;;
11328;SDS011;5719;42.714;23.732;2023-10-13T02:44:03;5.15;;;3.72;;
11328;SDS011;5719;42.714;23.732;2023-10-13T02:46:31;9.05;;;3.83;;
11328;SDS011;5719;42.714;23.732;2023-10-13T02:49:00;3.95;;;3.40;;
11328;SDS011;5719;42.714;23.732;2023-10-13T02:51:34;4.78;;;3.47;;
11328;SDS011;5719;42.714;23.732;2023-10-13T02:54:02;8.13;;;4.20;;
11328;SDS011;5719;42.714;23.732;2023-10-13T02:56:28;6.63;;;3.90;;
11328;SDS011;5719;42.714;23.732;2023-10-13T02:58:55;8.25;;;3.90;;
11328;SDS011;5719;42.714;23.732;2023-10-13T03:01:23;11.73;;;4.22;;
11328;SDS011;5719;42.714;23.732;2023-10-13T03:03:54;4.68;;;3.60;;
11328;SDS011;5719;42.714;23.732;2023-10-13T03:06:21;8.00;;;3.72;;
11328;SDS011;5719;42.714;23.732;2023-10-13T03:08:49;6.72;;;3.75;;
11328;SDS011;5719;42.714;23.732;2023-10-13T03:11:16;5.57;;;3.67;;
11328;SDS011;5719;42.714;23.732;2023-10-13T03:13:47;4.68;;;3.83;;
11328;SDS011;5719;42.714;23.732;2023-10-13T03:16:13;8.55;;;3.80;;
11328;SDS011;5719;42.714;23.732;2023-10-13T03:18:44;8.75;;;3.53;;
11328;SDS011;5719;42.714;23.732;2023-10-13T03:21:19;4.53;;;4.00;;
11328;SDS011;5719;42.714;23.732;2023-10-13T03:23:58;4.20;;;3.65;;
11328;SDS011;5719;42.714;23.732;2023-10-13T03:26:31;7.82;;;3.97;;
11328;SDS011;5719;42.714;23.732;2023-10-13T03:29:02;4.38;;;3.47;;
11328;SDS011;5719;42.714;23.732;2023-10-13T03:31:38;5.57;;;3.88;;
11328;SDS011;5719;42.714;23.732;2023-10-13T03:34:06;6.47;;;3.72;;
11328;SDS011;5719;42.714;23.732;2023-10-13T03:36:37;4.55;;;3.67;;
11328;SDS011;5719;42.714;23.732;2023-10-13T03:39:22;3.85;;;3.33;;
11328;SDS011;5719;42.714;23.732;2023-10-13T03:41:53;6.05;;;4.00;;
11328;SDS011;5719;42.714;23.732;2023-10-13T03:44:21;4.40;;;3.50;;
11328;SDS011;5719;42.714;23.732;2023-10-13T03:46:48;4.65;;;3.80;;
11328;SDS011;5719;42.714;23.732;2023-10-13T03:49:16;5.88;;;3.85;;
11328;SDS011;5719;42.714;23.732;2023-10-13T03:51:46;6.07;;;3.85;;
11328;SDS011;5719;42.714;23.732;2023-10-13T03:54:14;5.03;;;3.85;;
11328;SDS011;5719;42.714;23.732;2023-10-13T03:56:42;9.75;;;3.92;;
11328;SDS011;5719;42.714;23.732;2023-10-13T03:59:09;6.40;;;3.75;;
11328;SDS011;5719;42.714;23.732;2023-10-13T04:01:43;6.32;;;3.97;;
11328;SDS011;5719;42.714;23.732;2023-10-13T04:04:12;16.40;;;4.07;;
11328;SDS011;5719;42.714;23.732;2023-10-13T04:06:42;12.98;;;4.20;;
11328;SDS011;5719;42.714;23.732;2023-10-13T04:09:24;7.25;;;3.90;;
11328;SDS011;5719;42.714;23.732;2023-10-13T04:12:08;6.40;;;4.10;;
11328;SDS011;5719;42.714;23.732;2023-10-13T04:15:06;5.50;;;3.70;;
11328;SDS011;5719;42.714;23.732;2023-10-13T04:17:47;13.32;;;4.05;;
11328;SDS011;5719;42.714;23.732;2023-10-13T04:20:16;7.18;;;3.78;;
11328;SDS011;5719;42.714;23.732;2023-10-13T04:22:59;7.85;;;3.70;;
11328;SDS011;5719;42.714;23.732;2023-10-13T04:25:43;11.02;;;3.70;;
11328;SDS011;5719;42.714;23.732;2023-10-13T04:28:34;5.57;;;3.47;;
11328;SDS011;5719;42.714;23.732;2023-10-13T04:31:02;5.22;;;3.92;;
11328;SDS011;5719;42.714;23.732;2023-10-13T04:33:46;9.05;;;4.00;;
11328;SDS011;5719;42.714;23.732;2023-10-13T04:36:21;4.88;;;3.47;;
11328;SDS011;5719;42.714;23.732;2023-10-13T04:39:03;6.07;;;3.92;;
11328;SDS011;5719;42.714;23.732;2023-10-13T04:41:39;10.20;;;3.70;;
11328;SDS011;5719;42.714;23.732;2023-10-13T04:44:07;6.20;;;3.83;;
11328;SDS011;5719;42.714;23.732;2023-10-13T04:46:48;10.52;;;4.40;;
11328;SDS011;5719;42.714;23.732;2023-10-13T04:49:34;11.75;;;4.40;;
11328;SDS011;5719;42.714;23.732;2023-10-13T04:52:15;14.68;;;4.68;;
11328;SDS011;5719;42.714;23.732;2023-10-13T04:55:06;16.65;;;4.45;;
11328;SDS011;5719;42.714;23.732;2023-10-13T04:57:41;10.52;;;4.28;;
11328;SDS011;5719;42.714;23.732;2023-10-13T05:02:59;7.28;;;4.43;;
11328;SDS011;5719;42.714;23.732;2023-10-13T05:05:43;9.95;;;5.22;;
11328;SDS011;5719;42.714;23.732;2023-10-13T05:08:26;15.90;;;4.97;;
11328;SDS011;5719;42.714;23.732;2023-10-13T05:11:12;5.65;;;4.38;;
11328;SDS011;5719;42.714;23.732;2023-10-13T05:13:56;9.15;;;3.80;;
11328;SDS011;5719;42.714;23.732;2023-10-13T05:16:41;4.75;;;3.45;;
11328;SDS011;5719;42.714;23.732;2023-10-13T05:22:09;4.18;;;3.70;;
11328;SDS011;5719;42.714;23.732;2023-10-13T05:24:53;5.40;;;3.60;;
11328;SDS011;5719;42.714;23.732;2023-10-13T05:27:38;13.60;;;3.80;;
11328;SDS011;5719;42.714;23.732;2023-10-13T05:30:22;10.32;;;3.95;;
11328;SDS011;5719;42.714;23.732;2023-10-13T05:35:50;66.45;;;7.00;;
11328;SDS011;5719;42.714;23.732;2023-10-13T05:38:34;18.13;;;5.30;;
11328;SDS011;5719;42.714;23.732;2023-10-13T05:44:03;11.68;;;5.00;;
11328;SDS011;5719;42.714;23.732;2023-10-13T05:46:48;7.10;;;4.88;;
11328;SDS011;5719;42.714;23.732;2023-10-13T05:49:32;8.15;;;4.35;;
11328;SDS011;5719;42.714;23.732;2023-10-13T05:52:15;13.27;;;4.28;;
11328;SDS011;5719;42.714;23.732;2023-10-13T05:54:46;8.98;;;3.72;;
11328;SDS011;5719;42.714;23.732;2023-10-13T05:57:31;7.13;;;3.75;;
11328;SDS011;5719;42.714;23.732;2023-10-13T06:03:00;7.38;;;3.72;;
11328;SDS011;5719;42.714;23.732;2023-10-13T06:05:45;4.60;;;3.50;;
11328;SDS011;5719;42.714;23.732;2023-10-13T06:08:31;5.05;;;3.50;;
11328;SDS011;5719;42.714;23.732;2023-10-13T06:13:59;4.88;;;3.60;;
11328;SDS011;5719;42.714;23.732;2023-10-13T06:16:45;3.95;;;3.45;;
11328;SDS011;5719;42.714;23.732;2023-10-13T06:19:29;6.43;;;3.35;;
11328;SDS011;5719;42.714;23.732;2023-10-13T06:22:28;7.03;;;3.70;;
11328;SDS011;5719;42.714;23.732;2023-10-13T06:27:56;8.48;;;3.60;;
11328;SDS011;5719;42.714;23.732;2023-10-13T06:30:40;9.18;;;3.53;;
11328;SDS011;5719;42.714;23.732;2023-10-13T06:33:11;7.22;;;3.78;;
11328;SDS011;5719;42.714;23.732;2023-10-13T06:35:37;6.20;;;3.35;;
11328;SDS011;5719;42.714;23.732;2023-10-13T06:38:06;4.85;;;3.75;;
11328;SDS011;5719;42.714;23.732;2023-10-13T06:40:45;8.63;;;3.40;;
11328;SDS011;5719;42.714;23.732;2023-10-13T06:43:13;6.72;;;3.97;;
11328;SDS011;5719;42.714;23.732;2023-10-13T06:45:42;7.22;;;3.67;;
11328;SDS011;5719;42.714;23.732;2023-10-13T06:48:17;11.23;;;3.63;;
11328;SDS011;5719;42.714;23.732;2023-10-13T06:50:48;7.97;;;3.08;;
11328;SDS011;5719;42.714;23.732;2023-10-13T06:53:17;6.63;;;3.55;;
11328;SDS011;5719;42.714;23.732;2023-10-13T06:55:44;5.32;;;3.22;;
11328;SDS011;5719;42.714;23.732;2023-10-13T06:58:14;30.80;;;5.85;;
11328;SDS011;5719;42.714;23.732;2023-10-13T07:00:42;8.15;;;3.65;;
11328;SDS011;5719;42.714;23.732;2023-10-13T07:03:19;9.32;;;3.50;;
11328;SDS011;5719;42.714;23.732;2023-10-13T07:05:46;7.07;;;3.97;;
11328;SDS011;5719;42.714;23.732;2023-10-13T07:08:14;11.45;;;4.25;;
11328;SDS011;5719;42.714;23.732;2023-10-13T07:10:48;4.32;;;3.53;;
11328;SDS011;5719;42.714;23.732;2023-10-13T07:13:16;6.75;;;3.95;;
11328;SDS011;5719;42.714;23.732;2023-10-13T07:15:44;12.38;;;4.13;;
11328;SDS011;5719;42.714;23.732;2023-10-13T07:18:11;10.25;;;4.82;;
11328;SDS011;5719;42.714;23.732;2023-10-13T07:20:41;14.73;;;4.32;;
11328;SDS011;5719;42.714;23.732;2023-10-13T07:23:10;9.13;;;4.13;;
11328;SDS011;5719;42.714;23.732;2023-10-13T07:25:43;9.88;;;4.20;;
11328;SDS011;5719;42.714;23.732;2023-10-13T07:28:18;10.52;;;4.35;;
11328;SDS011;5719;42.714;23.732;2023-10-13T07:30:45;6.35;;;3.92;;
11328;SDS011;5719;42.714;23.732;2023-10-13T07:33:36;10.45;;;4.40;;
11328;SDS011;5719;42.714;23.732;2023-10-13T07:36:05;5.78;;;4.10;;
11328;SDS011;5719;42.714;23.732;2023-10-13T07:38:41;14.13;;;4.20;;
11328;SDS011;5719;42.714;23.732;2023-10-13T07:41:13;10.63;;;4.15;;
11328;SDS011;5719;42.714;23.732;2023-10-13T07:43:41;12.27;;;4.45;;
11328;SDS011;5719;42.714;23.732;2023-10-13T07:46:07;5.95;;;3.72;;
11328;SDS011;5719;42.714;23.732;2023-10-13T07:48:36;10.63;;;4.43;;
11328;SDS011;5719;42.714;23.732;2023-10-13T07:51:05;13.90;;;5.10;;
11328;SDS011;5719;42.714;23.732;2023-10-13T07:53:36;9.77;;;4.97;;
11328;SDS011;5719;42.714;23.732;2023-10-13T07:56:05;8.57;;;4.25;;
11328;SDS011;5719;42.714;23.732;2023-10-13T07:58:33;8.43;;;4.40;;
11328;SDS011;5719;42.714;23.732;2023-10-13T08:01:11;11.27;;;4.45;;
11328;SDS011;5719;42.714;23.732;2023-10-13T08:03:42;7.20;;;4.53;;
11328;SDS011;5719;42.714;23.732;2023-10-13T08:06:14;13.07;;;4.65;;
11328;SDS011;5719;42.714;23.732;2023-10-13T08:08:45;10.60;;;4.30;;
11328;SDS011;5719;42.714;23.732;2023-10-13T08:11:15;11.15;;;4.80;;
11328;SDS011;5719;42.714;23.732;2023-10-13T08:13:52;12.52;;;5.07;;
11328;SDS011;5719;42.714;23.732;2023-10-13T08:16:25;17.13;;;4.97;;
11328;SDS011;5719;42.714;23.732;2023-10-13T08:19:10;11.48;;;5.10;;
11328;SDS011;5719;42.714;23.732;2023-10-13T08:21:41;10.10;;;5.38;;
11328;SDS011;5719;42.714;23.732;2023-10-13T08:24:14;13.75;;;5.13;;
11328;SDS011;5719;42.714;23.732;2023-10-13T08:26:50;15.50;;;5.35;;
11328;SDS011;5719;42.714;23.732;2023-10-13T08:29:34;14.23;;;5.35;;
11328;SDS011;5719;42.714;23.732;2023-10-13T08:32:18;16.50;;;5.07;;
11328;SDS011;5719;42.714;23.732;2023-10-13T08:35:01;21.45;;;5.38;;
11328;SDS011;5719;42.714;23.732;2023-10-13T08:37:49;15.27;;;5.20;;
11328;SDS011;5719;42.714;23.732;2023-10-13T08:40:35;17.27;;;5.20;;
11328;SDS011;5719;42.714;23.732;2023-10-13T08:43:20;16.70;;;5.22;;
11328;SDS011;5719;42.714;23.732;2023-10-13T08:45:48;22.77;;;5.10;;
11328;SDS011;5719;42.714;23.732;2023-10-13T08:48:18;20.10;;;6.20;;
11328;SDS011;5719;42.714;23.732;2023-10-13T08:50:51;14.73;;;4.82;;
11328;SDS011;5719;42.714;23.732;2023-10-13T08:53:23;20.13;;;5.32;;
11328;SDS011;5719;42.714;23.732;2023-10-13T08:55:57;15.45;;;4.95;;
11328;SDS011;5719;42.714;23.732;2023-10-13T08:58:30;11.27;;;4.15;;
11328;SDS011;5719;42.714;23.732;2023-10-13T09:01:12;10.38;;;4.53;;
11328;SDS011;5719;42.714;23.732;2023-10-13T09:06:43;12.63;;;4.82;;
11328;SDS011;5719;42.714;23.732;2023-10-13T09:09:14;15.80;;;5.38;;
11328;SDS011;5719;42.714;23.732;2023-10-13T09:11:52;12.15;;;5.07;;
11328;SDS011;5719;42.714;23.732;2023-10-13T09:14:34;13.15;;;4.95;;
11328;SDS011;5719;42.714;23.732;2023-10-13T09:17:05;21.02;;;5.55;;
11328;SDS011;5719;42.714;23.732;2023-10-13T09:22:45;19.45;;;5.78;;
11328;SDS011;5719;42.714;23.732;2023-10-13T09:25:23;20.23;;;5.25;;
11328;SDS011;5719;42.714;23.732;2023-10-13T09:27:50;19.45;;;5.55;;
11328;SDS011;5719;42.714;23.732;2023-10-13T09:30:18;14.20;;;5.50;;
11328;SDS011;5719;42.714;23.732;2023-10-13T09:32:46;16.15;;;5.25;;
11328;SDS011;5719;42.714;23.732;2023-10-13T09:35:16;16.52;;;5.97;;
11328;SDS011;5719;42.714;23.732;2023-10-13T09:37:48;15.88;;;5.45;;
11328;SDS011;5719;42.714;23.732;2023-10-13T09:40:15;10.68;;;5.10;;
11328;SDS011;5719;42.714;23.732;2023-10-13T09:42:54;17.70;;;5.80;;
11328;SDS011;5719;42.714;23.732;2023-10-13T09:45:23;14.07;;;5.43;;
11328;SDS011;5719;42.714;23.732;2023-10-13T09:47:54;22.13;;;5.90;;
11328;SDS011;5719;42.714;23.732;2023-10-13T09:50:25;16.52;;;6.03;;
11328;SDS011;5719;42.714;23.732;2023-10-13T09:52:58;17.83;;;5.28;;
11328;SDS011;5719;42.714;23.732;2023-10-13T09:55:26;14.48;;;5.70;;
11328;SDS011;5719;42.714;23.732;2023-10-13T09:58:00;22.55;;;6.50;;
11328;SDS011;5719;42.714;23.732;2023-10-13T10:00:35;23.02;;;5.47;;
11328;SDS011;5719;42.714;23.732;2023-10-13T10:03:15;15.38;;;5.18;;
11328;SDS011;5719;42.714;23.732;2023-10-13T10:05:56;14.13;;;5.55;;
11328;SDS011;5719;42.714;23.732;2023-10-13T10:08:30;21.33;;;6.05;;
11328;SDS011;5719;42.714;23.732;2023-10-13T10:13:53;19.50;;;5.97;;
11328;SDS011;5719;42.714;23.732;2023-10-13T10:16:33;19.55;;;5.30;;
11328;SDS011;5719;42.714;23.732;2023-10-13T10:19:07;15.65;;;5.90;;
11328;SDS011;5719;42.714;23.732;2023-10-13T10:21:34;18.30;;;6.20;;
11328;SDS011;5719;42.714;23.732;2023-10-13T10:24:01;12.80;;;5.70;;
11328;SDS011;5719;42.714;23.732;2023-10-13T10:26:38;17.85;;;6.25;;
11328;SDS011;5719;42.714;23.732;2023-10-13T10:29:18;14.57;;;5.38;;
11328;SDS011;5719;42.714;23.732;2023-10-13T10:31:45;11.98;;;5.10;;
11328;SDS011;5719;42.714;23.732;2023-10-13T10:34:13;12.73;;;5.47;;
11328;SDS011;5719;42.714;23.732;2023-10-13T10:36:44;19.60;;;5.68;;
11328;SDS011;5719;42.714;23.732;2023-10-13T10:39:13;18.45;;;5.72;;
11328;SDS011;5719;42.714;23.732;2023-10-13T10:41:42;15.32;;;5.13;;
11328;SDS011;5719;42.714;23.732;2023-10-13T10:44:17;17.15;;;5.88;;
11328;SDS011;5719;42.714;23.732;2023-10-13T10:47:08;17.23;;;5.20;;
11328;SDS011;5719;42.714;23.732;2023-10-13T10:49:37;20.05;;;5.68;;
11328;SDS011;5719;42.714;23.732;2023-10-13T10:52:04;13.23;;;5.55;;
11328;SDS011;5719;42.714;23.732;2023-10-13T10:54:43;23.63;;;5.90;;
11328;SDS011;5719;42.714;23.732;2023-10-13T10:57:13;15.07;;;5.70;;
11328;SDS011;5719;42.714;23.732;2023-10-13T10:59:44;19.70;;;6.03;;
11328;SDS011;5719;42.714;23.732;2023-10-13T11:02:11;19.00;;;5.38;;
11328;SDS011;5719;42.714;23.732;2023-10-13T11:04:43;12.43;;;5.75;;
11328;SDS011;5719;42.714;23.732;2023-10-13T11:07:25;17.60;;;6.45;;
11328;SDS011;5719;42.714;23.732;2023-10-13T11:09:53;17.33;;;5.63;;
11328;SDS011;5719;42.714;23.732;2023-10-13T11:12:31;15.95;;;5.75;;
11328;SDS011;5719;42.714;23.732;2023-10-13T11:15:01;10.50;;;5.30;;
11328;SDS011;5719;42.714;23.732;2023-10-13T11:17:34;11.95;;;4.85;;
11328;SDS011;5719;42.714;23.732;2023-10-13T11:20:16;15.82;;;5.22;;
11328;SDS011;5719;42.714;23.732;2023-10-13T11:22:51;14.93;;;4.93;;
11328;SDS011;5719;42.714;23.732;2023-10-13T11:25:22;16.33;;;4.80;;
11328;SDS011;5719;42.714;23.732;2023-10-13T11:27:54;12.30;;;5.28;;
11328;SDS011;5719;42.714;23.732;2023-10-13T11:30:24;14.63;;;5.32;;
11328;SDS011;5719;42.714;23.732;2023-10-13T11:32:57;17.95;;;4.97;;
11328;SDS011;5719;42.714;23.732;2023-10-13T11:35:25;18.65;;;5.20;;
11328;SDS011;5719;42.714;23.732;2023-10-13T11:37:54;11.32;;;5.07;;
11328;SDS011;5719;42.714;23.732;2023-10-13T11:40:28;14.85;;;5.32;;
11328;SDS011;5719;42.714;23.732;2023-10-13T11:43:09;22.23;;;5.30;;
11328;SDS011;5719;42.714;23.732;2023-10-13T11:45:50;10.10;;;4.60;;
11328;SDS011;5719;42.714;23.732;2023-10-13T11:48:21;11.50;;;4.50;;
11328;SDS011;5719;42.714;23.732;2023-10-13T11:51:00;14.77;;;4.97;;
11328;SDS011;5719;42.714;23.732;2023-10-13T11:53:30;13.07;;;4.80;;
11328;SDS011;5719;42.714;23.732;2023-10-13T11:55:58;12.23;;;4.43;;
11328;SDS011;5719;42.714;23.732;2023-10-13T11:58:25;17.23;;;4.32;;
11328;SDS011;5719;42.714;23.732;2023-10-13T12:00:55;13.52;;;4.30;;
11328;SDS011;5719;42.714;23.732;2023-10-13T12:03:45;8.35;;;3.85;;
11328;SDS011;5719;42.714;23.732;2023-10-13T12:06:32;10.68;;;3.90;;
11328;SDS011;5719;42.714;23.732;2023-10-13T12:09:12;11.27;;;4.00;;
11328;SDS011;5719;42.714;23.732;2023-10-13T12:11:57;8.27;;;3.70;;
11328;SDS011;5719;42.714;23.732;2023-10-13T12:14:26;9.00;;;3.83;;
11328;SDS011;5719;42.714;23.732;2023-10-13T12:16:56;7.80;;;3.70;;
11328;SDS011;5719;42.714;23.732;2023-10-13T12:19:29;9.15;;;3.65;;
11328;SDS011;5719;42.714;23.732;2023-10-13T12:21:57;11.63;;;3.88;;
11328;SDS011;5719;42.714;23.732;2023-10-13T12:27:05;9.60;;;2.45;;
11328;SDS011;5719;42.714;23.732;2023-10-13T12:29:44;7.38;;;1.50;;
11328;SDS011;5719;42.714;23.732;2023-10-13T12:32:14;3.88;;;1.42;;
11328;SDS011;5719;42.714;23.732;2023-10-13T12:34:47;4.28;;;1.60;;
11328;SDS011;5719;42.714;23.732;2023-10-13T12:37:26;5.55;;;1.80;;
11328;SDS011;5719;42.714;23.732;2023-10-13T12:40:16;4.28;;;1.60;;
11328;SDS011;5719;42.714;23.732;2023-10-13T12:43:02;2.40;;;1.63;;
11328;SDS011;5719;42.714;23.732;2023-10-13T12:45:47;7.15;;;1.70;;
11328;SDS011;5719;42.714;23.732;2023-10-13T12:48:34;5.70;;;1.67;;
11328;SDS011;5719;42.714;23.732;2023-10-13T12:51:20;3.10;;;1.42;;
11328;SDS011;5719;42.714;23.732;2023-10-13T12:54:05;6.32;;;1.50;;
11328;SDS011;5719;42.714;23.732;2023-10-13T12:56:39;3.85;;;1.65;;
11328;SDS011;5719;42.714;23.732;2023-10-13T12:59:07;4.93;;;1.55;;
11328;SDS011;5719;42.714;23.732;2023-10-13T13:01:38;7.13;;;1.80;;
11328;SDS011;5719;42.714;23.732;2023-10-13T13:04:09;22.30;;;2.70;;
11328;SDS011;5719;42.714;23.732;2023-10-13T13:06:43;9.60;;;2.13;;
11328;SDS011;5719;42.714;23.732;2023-10-13T13:09:10;9.85;;;2.05;;
11328;SDS011;5719;42.714;23.732;2023-10-13T13:11:37;5.68;;;1.90;;
11328;SDS011;5719;42.714;23.732;2023-10-13T13:14:05;9.82;;;2.95;;
11328;SDS011;5719;42.714;23.732;2023-10-13T13:16:34;5.30;;;1.33;;
11328;SDS011;5719;42.714;23.732;2023-10-13T13:19:04;5.20;;;1.90;;
11328;SDS011;5719;42.714;23.732;2023-10-13T13:21:37;9.82;;;1.80;;
11328;SDS011;5719;42.714;23.732;2023-10-13T13:24:05;9.65;;;1.73;;
11328;SDS011;5719;42.714;23.732;2023-10-13T13:26:36;6.38;;;1.80;;
11328;SDS011;5719;42.714;23.732;2023-10-13T13:29:06;9.98;;;1.70;;
11328;SDS011;5719;42.714;23.732;2023-10-13T13:31:35;10.05;;;1.88;;
11328;SDS011;5719;42.714;23.732;2023-10-13T13:34:07;10.63;;;2.42;;
11328;SDS011;5719;42.714;23.732;2023-10-13T13:36:35;5.80;;;1.52;;
11328;SDS011;5719;42.714;23.732;2023-10-13T13:39:04;9.52;;;1.70;;
11328;SDS011;5719;42.714;23.732;2023-10-13T13:41:31;5.75;;;1.58;;
11328;SDS011;5719;42.714;23.732;2023-10-13T13:43:59;4.20;;;1.40;;
11328;SDS011;5719;42.714;23.732;2023-10-13T13:46:38;4.97;;;1.73;;
11328;SDS011;5719;42.714;23.732;2023-10-13T13:49:08;4.97;;;1.50;;
11328;SDS011;5719;42.714;23.732;2023-10-13T13:51:43;6.30;;;1.48;;
11328;SDS011;5719;42.714;23.732;2023-10-13T13:54:18;6.05;;;1.60;;
11328;SDS011;5719;42.714;23.732;2023-10-13T13:56:46;3.42;;;1.30;;
11328;SDS011;5719;42.714;23.732;2023-10-13T13:59:13;7.30;;;1.70;;
11328;SDS011;5719;42.714;23.732;2023-10-13T14:01:45;3.13;;;1.35;;
11328;SDS011;5719;42.714;23.732;2023-10-13T14:04:12;12.00;;;1.63;;
11328;SDS011;5719;42.714;23.732;2023-10-13T14:06:43;4.28;;;1.40;;
11328;SDS011;5719;42.714;23.732;2023-10-13T14:09:11;4.88;;;1.60;;
11328;SDS011;5719;42.714;23.732;2023-10-13T14:11:42;9.52;;;1.30;;
11328;SDS011;5719;42.714;23.732;2023-10-13T14:14:35;5.10;;;1.30;;
11328;SDS011;5719;42.714;23.732;2023-10-13T14:17:02;7.82;;;1.83;;
11328;SDS011;5719;42.714;23.732;2023-10-13T14:19:32;5.63;;;1.50;;
11328;SDS011;5719;42.714;23.732;2023-10-13T14:22:00;8.07;;;1.30;;
11328;SDS011;5719;42.714;23.732;2023-10-13T14:24:32;4.00;;;1.50;;
11328;SDS011;5719;42.714;23.732;2023-10-13T14:27:01;5.13;;;1.70;;
11328;SDS011;5719;42.714;23.732;2023-10-13T14:29:34;8.40;;;1.92;;
11328;SDS011;5719;42.714;23.732;2023-10-13T14:32:06;6.60;;;1.60;;
11328;SDS011;5719;42.714;23.732;2023-10-13T14:34:37;7.15;;;1.50;;
11328;SDS011;5719;42.714;23.732;2023-10-13T14:37:05;8.65;;;2.20;;
11328;SDS011;5719;42.714;23.732;2023-10-13T14:39:32;6.15;;;1.63;;
11328;SDS011;5719;42.714;23.732;2023-10-13T14:42:02;9.50;;;1.92;;
11328;SDS011;5719;42.714;23.732;2023-10-13T14:44:31;5.22;;;1.85;;
11328;SDS011;5719;42.714;23.732;2023-10-13T14:46:58;4.40;;;1.58;;
11328;SDS011;5719;42.714;23.732;2023-10-13T14:49:25;7.32;;;1.90;;
11328;SDS011;5719;42.714;23.732;2023-10-13T14:51:54;9.65;;;1.70;;
11328;SDS011;5719;42.714;23.732;2023-10-13T14:54:21;6.50;;;1.80;;
11328;SDS011;5719;42.714;23.732;2023-10-13T14:56:58;5.97;;;1.98;;
11328;SDS011;5719;42.714;23.732;2023-10-13T14:59:28;7.25;;;1.98;;
11328;SDS011;5719;42.714;23.732;2023-10-13T15:01:58;9.73;;;2.03;;
11328;SDS011;5719;42.714;23.732;2023-10-13T15:04:27;5.80;;;2.15;;
11328;SDS011;5719;42.714;23.732;2023-10-13T15:06:58;8.13;;;2.10;;
11328;SDS011;5719;42.714;23.732;2023-10-13T15:09:27;4.40;;;2.05;;
11328;SDS011;5719;42.714;23.732;2023-10-13T15:11:55;7.07;;;1.83;;
11328;SDS011;5719;42.714;23.732;2023-10-13T15:14:22;5.35;;;1.67;;
11328;SDS011;5719;42.714;23.732;2023-10-13T15:16:51;6.30;;;2.10;;
11328;SDS011;5719;42.714;23.732;2023-10-13T15:19:18;7.63;;;2.42;;
11328;SDS011;5719;42.714;23.732;2023-10-13T15:21:45;8.52;;;2.10;;
11328;SDS011;5719;42.714;23.732;2023-10-13T15:24:15;14.63;;;2.45;;
11328;SDS011;5719;42.714;23.732;2023-10-13T15:26:43;16.17;;;2.08;;
11328;SDS011;5719;42.714;23.732;2023-10-13T15:29:14;5.50;;;1.95;;
11328;SDS011;5719;42.714;23.732;2023-10-13T15:31:43;9.15;;;1.75;;
11328;SDS011;5719;42.714;23.732;2023-10-13T15:34:31;3.90;;;1.85;;
11328;SDS011;5719;42.714;23.732;2023-10-13T15:36:59;6.45;;;1.63;;
11328;SDS011;5719;42.714;23.732;2023-10-13T15:39:30;7.68;;;1.92;;
11328;SDS011;5719;42.714;23.732;2023-10-13T15:41:57;4.68;;;1.95;;
11328;SDS011;5719;42.714;23.732;2023-10-13T15:44:24;5.22;;;1.80;;
11328;SDS011;5719;42.714;23.732;2023-10-13T15:46:55;5.38;;;1.60;;
11328;SDS011;5719;42.714;23.732;2023-10-13T15:49:23;8.73;;;1.88;;